createdAt,value
2019-03-02T00:02:24.243Z,0.50
2019-03-02T00:04:53.638Z,0.47
2019-03-02T00:07:24.587Z,0.50
2019-03-02T00:09:54.614Z,0.60
2019-03-02T00:12:24.604Z,0.60
2019-03-02T00:14:55.055Z,0.50
2019-03-02T00:17:25.291Z,0.70
2019-03-02T00:19:55.294Z,0.50
2019-03-02T00:22:25.374Z,0.70
2019-03-02T00:24:57.913Z,0.60
2019-03-02T00:27:27.041Z,0.80
2019-03-02T00:29:57.075Z,0.60
2019-03-02T00:32:27.039Z,0.50
2019-03-02T00:34:57.008Z,0.53
2019-03-02T00:37:29.631Z,0.50
2019-03-02T00:39:58.682Z,0.53
2019-03-02T00:42:28.741Z,0.60
2019-03-02T00:44:58.733Z,0.50
2019-03-02T00:47:31.795Z,0.80
2019-03-02T00:50:02.515Z,0.30
2019-03-02T00:52:32.802Z,0.40
2019-03-02T00:55:02.847Z,0.70
2019-03-02T00:57:33.100Z,0.30
2019-03-02T01:00:04.281Z,0.50
2019-03-02T01:02:36.748Z,0.40
2019-03-02T01:05:08.587Z,0.47
2019-03-02T01:07:38.648Z,0.30
2019-03-02T01:10:09.649Z,0.50
2019-03-02T01:12:40.438Z,0.40
2019-03-02T01:15:12.459Z,0.40
2019-03-02T01:17:43.470Z,0.40
2019-03-02T01:20:13.546Z,0.53
2019-03-02T01:22:43.624Z,0.50
2019-03-02T01:25:14.435Z,0.40
2019-03-02T01:27:45.741Z,0.47
2019-03-02T01:30:16.444Z,0.50
2019-03-02T01:32:48.820Z,0.50
2019-03-02T01:35:20.131Z,0.60
2019-03-02T01:37:49.851Z,0.50
2019-03-02T01:40:19.921Z,0.50
2019-03-02T01:42:49.963Z,0.40
2019-03-02T01:45:20.041Z,0.87
2019-03-02T01:47:51.168Z,0.50
2019-03-02T01:50:21.759Z,0.40
2019-03-02T01:52:51.751Z,0.53
2019-03-02T01:55:21.805Z,0.57
2019-03-02T01:57:52.254Z,0.60
2019-03-02T02:00:26.692Z,0.40
2019-03-02T02:02:56.677Z,0.77
2019-03-02T02:05:28.696Z,0.60
2019-03-02T02:07:58.487Z,0.60
2019-03-02T02:10:28.482Z,0.80
2019-03-02T02:13:02.778Z,0.80
2019-03-02T02:15:31.440Z,0.30
2019-03-02T02:18:01.484Z,0.40
2019-03-02T02:20:31.474Z,0.80
2019-03-02T02:23:01.535Z,0.90
2019-03-02T02:25:32.636Z,0.50
2019-03-02T02:28:04.106Z,0.90
2019-03-02T02:30:34.184Z,1.15
2019-03-02T02:33:05.974Z,0.50
2019-03-02T02:35:40.261Z,1.27
2019-03-02T02:38:11.415Z,1.00
2019-03-02T02:40:41.016Z,1.20
2019-03-02T02:43:10.998Z,1.30
2019-03-02T02:45:40.973Z,1.23
2019-03-02T02:48:10.946Z,0.70
2019-03-02T02:50:42.965Z,0.93
2019-03-02T02:53:12.641Z,0.70
2019-03-02T02:55:42.685Z,1.37
2019-03-02T02:58:17.468Z,0.80
2019-03-02T03:00:44.424Z,1.47
2019-03-02T03:03:15.870Z,0.80
2019-03-02T03:05:49.204Z,0.67
2019-03-02T03:08:17.919Z,0.97
2019-03-02T03:10:47.995Z,0.77
2019-03-02T03:13:17.940Z,0.60
2019-03-02T03:15:49.873Z,1.30
2019-03-02T03:18:19.876Z,1.13
2019-03-02T03:20:50.729Z,1.00
2019-03-02T03:23:24.819Z,1.03
2019-03-02T03:25:57.094Z,0.70
2019-03-02T03:28:30.150Z,0.80
2019-03-02T03:30:57.485Z,0.90
2019-03-02T03:33:41.449Z,1.07
2019-03-02T03:35:59.253Z,1.30
2019-03-02T03:38:29.711Z,0.70
2019-03-02T03:41:05.295Z,2.03
2019-03-02T03:43:41.914Z,1.07
2019-03-02T03:46:04.745Z,0.90
2019-03-02T03:48:34.719Z,0.93
2019-03-02T03:51:04.778Z,1.00
2019-03-02T03:53:34.894Z,0.97
2019-03-02T03:56:05.596Z,1.30
2019-03-02T03:58:39.875Z,0.90
2019-03-02T04:01:07.582Z,0.70
2019-03-02T04:03:37.622Z,0.97
2019-03-02T04:06:07.667Z,0.93
2019-03-02T04:08:37.666Z,1.20
2019-03-02T04:11:07.636Z,1.70
2019-03-02T04:13:44.152Z,1.07
2019-03-02T04:16:09.457Z,0.80
2019-03-02T04:18:55.127Z,1.40
2019-03-02T04:21:28.162Z,1.17
2019-03-02T04:24:01.226Z,1.40
2019-03-02T04:26:31.550Z,1.10
2019-03-02T04:29:00.077Z,1.10
2019-03-02T04:31:30.070Z,1.10
2019-03-02T04:34:00.129Z,1.30
2019-03-02T04:36:30.277Z,1.60
2019-03-02T04:39:00.350Z,1.17
2019-03-02T04:41:30.322Z,1.40
2019-03-02T04:44:00.319Z,1.40
2019-03-02T04:46:30.392Z,1.07
2019-03-02T04:49:00.461Z,1.23
2019-03-02T04:51:30.566Z,0.90
2019-03-02T04:54:01.842Z,1.17
2019-03-02T04:56:32.241Z,0.90
2019-03-02T04:59:03.131Z,1.00
2019-03-02T05:01:33.230Z,1.40
2019-03-02T05:04:04.084Z,1.00
2019-03-02T05:06:34.129Z,2.07
2019-03-02T05:09:05.507Z,2.00
2019-03-02T05:11:39.283Z,1.53
2019-03-02T05:14:07.657Z,1.50
2019-03-02T05:16:37.735Z,1.53
2019-03-02T05:19:08.926Z,2.23
2019-03-02T05:21:39.943Z,1.60
2019-03-02T05:24:10.732Z,1.63
2019-03-02T05:26:40.739Z,1.20
2019-03-02T05:29:10.705Z,1.90
2019-03-02T05:31:41.137Z,3.03
2019-03-02T05:34:12.092Z,1.43
2019-03-02T05:36:42.193Z,1.60
2019-03-02T05:39:13.922Z,1.13
2019-03-02T05:41:43.936Z,1.37
2019-03-02T05:44:14.080Z,1.70
2019-03-02T05:46:44.192Z,1.60
2019-03-02T05:49:15.743Z,1.50
2019-03-02T05:51:45.909Z,1.67
2019-03-02T05:54:15.969Z,1.97
2019-03-02T05:56:46.057Z,2.87
2019-03-02T05:59:16.145Z,1.60
2019-03-02T06:01:46.148Z,2.03
2019-03-02T06:04:18.752Z,1.67
2019-03-02T06:06:50.827Z,2.07
2019-03-02T06:09:20.613Z,1.73
2019-03-02T06:11:50.618Z,1.77
2019-03-02T06:14:20.642Z,1.53
2019-03-02T06:16:53.794Z,1.80
2019-03-02T06:19:23.543Z,2.03
2019-03-02T06:21:54.214Z,2.10
2019-03-02T06:24:24.269Z,2.07
2019-03-02T06:26:54.360Z,1.90
2019-03-02T06:29:24.432Z,2.00
2019-03-02T06:31:54.967Z,1.70
2019-03-02T06:34:25.065Z,1.63
2019-03-02T06:36:55.081Z,2.80
2019-03-02T06:40:01.043Z,1.87
2019-03-02T06:42:37.227Z,2.22
2019-03-02T06:45:09.003Z,2.20
2019-03-02T06:47:40.388Z,2.30
2019-03-02T06:50:11.218Z,2.10
2019-03-02T06:52:41.585Z,1.80
2019-03-02T06:55:12.053Z,2.13
2019-03-02T06:57:42.279Z,2.10
2019-03-02T07:00:14.112Z,2.10
2019-03-02T07:02:52.056Z,2.30
2019-03-02T07:05:22.454Z,3.03
2019-03-02T07:07:53.580Z,2.00
2019-03-02T07:10:24.557Z,2.20
2019-03-02T07:12:57.135Z,2.03
2019-03-02T07:15:27.316Z,2.33
2019-03-02T07:18:15.457Z,2.37
2019-03-02T07:20:45.582Z,2.40
2019-03-02T07:23:15.746Z,2.40
2019-03-02T07:25:45.887Z,2.27
2019-03-02T07:28:17.100Z,3.13
2019-03-02T07:30:47.118Z,3.30
2019-03-02T07:33:17.511Z,4.47
2019-03-02T07:35:47.586Z,4.13
2019-03-02T07:38:20.284Z,2.97
2019-03-02T07:40:49.804Z,3.10
2019-03-02T07:43:20.484Z,2.70
2019-03-02T07:45:50.515Z,2.97
2019-03-02T07:48:20.488Z,2.50
2019-03-02T07:50:50.537Z,3.23
2019-03-02T07:53:20.517Z,2.43
2019-03-02T07:55:53.637Z,3.37
2019-03-02T07:58:22.385Z,2.90
2019-03-02T08:00:52.524Z,4.67
2019-03-02T08:03:22.529Z,3.90
2019-03-02T08:05:52.539Z,3.23
2019-03-02T08:08:22.569Z,4.87
2019-03-02T08:10:52.685Z,4.43
2019-03-02T08:13:22.669Z,5.47
2019-03-02T08:15:52.816Z,4.10
2019-03-02T08:18:25.950Z,3.23
2019-03-02T08:20:57.370Z,3.40
2019-03-02T08:23:26.253Z,4.53
2019-03-02T08:25:56.384Z,5.27
2019-03-02T08:28:26.321Z,3.30
2019-03-02T08:30:56.753Z,3.90
2019-03-02T08:33:26.841Z,4.30
2019-03-02T08:35:56.914Z,3.97
2019-03-02T08:38:26.886Z,4.03
2019-03-02T08:41:00.329Z,3.50
2019-03-02T08:43:28.582Z,4.03
2019-03-02T08:45:58.650Z,3.90
2019-03-02T08:48:28.602Z,4.63
2019-03-02T08:50:58.621Z,3.77
2019-03-02T08:53:28.544Z,4.97
2019-03-02T08:55:58.917Z,3.90
2019-03-02T08:58:29.000Z,4.53
2019-03-02T09:00:59.943Z,5.17
2019-03-02T09:03:30.374Z,6.07
2019-03-02T09:06:00.500Z,5.03
2019-03-02T09:08:30.492Z,7.40
2019-03-02T09:11:00.546Z,6.53
2019-03-02T09:13:30.974Z,5.03
2019-03-02T09:16:05.398Z,5.57
2019-03-02T09:18:44.216Z,7.10
2019-03-02T09:21:08.946Z,5.73
2019-03-02T09:23:37.855Z,5.80
2019-03-02T09:26:07.940Z,5.60
2019-03-02T09:28:38.046Z,4.60
2019-03-02T09:31:08.184Z,4.77
2019-03-02T09:33:38.233Z,4.67
2019-03-02T09:36:08.197Z,6.13
2019-03-02T09:38:38.163Z,5.63
2019-03-02T09:41:08.189Z,7.07
2019-03-02T09:43:38.205Z,7.60
2019-03-02T09:46:08.576Z,5.00
2019-03-02T09:48:38.625Z,5.90
2019-03-02T09:51:09.781Z,5.90
2019-03-02T09:53:39.803Z,4.93
2019-03-02T09:56:09.913Z,5.20
2019-03-02T09:58:39.919Z,5.60
2019-03-02T10:01:09.981Z,8.27
2019-03-02T10:03:39.976Z,8.30
2019-03-02T10:06:10.088Z,7.97
2019-03-02T10:08:40.109Z,9.13
2019-03-02T10:11:10.150Z,10.40
2019-03-02T10:13:40.211Z,16.10
2019-03-02T10:16:10.274Z,8.90
2019-03-02T10:18:40.264Z,8.73
2019-03-02T10:21:10.303Z,13.83
2019-03-02T10:23:42.026Z,10.00
2019-03-02T10:26:12.320Z,12.27
2019-03-02T10:28:42.341Z,10.70
2019-03-02T10:31:13.475Z,14.87
2019-03-02T10:33:43.530Z,11.60
2019-03-02T10:36:13.617Z,12.47
2019-03-02T10:38:46.089Z,14.07
2019-03-02T10:41:16.690Z,16.73
2019-03-02T10:43:48.010Z,10.47
2019-03-02T10:46:18.087Z,14.97
2019-03-02T10:48:48.069Z,17.67
2019-03-02T10:51:18.240Z,13.03
2019-03-02T10:53:48.285Z,14.80
2019-03-02T10:56:20.834Z,13.40
2019-03-02T10:58:50.084Z,15.03
2019-03-02T11:01:20.104Z,13.53
2019-03-02T11:03:50.106Z,15.53
2019-03-02T11:06:26.041Z,14.87
2019-03-02T11:09:22.243Z,11.03
2019-03-02T11:12:10.787Z,14.37
2019-03-02T11:15:07.655Z,15.37
2019-03-02T11:17:46.987Z,15.43
2019-03-02T11:20:33.268Z,15.07
2019-03-02T11:23:23.146Z,16.23
2019-03-02T11:26:18.345Z,17.07
2019-03-02T11:28:59.264Z,18.70
2019-03-02T11:31:35.219Z,17.87
2019-03-02T11:34:18.339Z,19.67
2019-03-02T11:37:07.687Z,14.80
2019-03-02T11:39:54.230Z,14.03
2019-03-02T11:42:44.686Z,16.93
2019-03-02T11:45:27.329Z,17.43
2019-03-02T11:48:17.312Z,19.77
2019-03-02T11:51:06.063Z,18.53
2019-03-02T11:53:53.991Z,18.77
2019-03-02T11:56:43.005Z,16.90
2019-03-02T11:59:24.215Z,14.77
2019-03-02T12:02:15.668Z,16.43
2019-03-02T12:05:06.048Z,15.13
2019-03-02T12:08:01.360Z,16.57
2019-03-02T12:10:40.943Z,14.20
2019-03-02T12:13:31.203Z,15.53
2019-03-02T12:16:11.774Z,15.27
2019-03-02T12:19:19.343Z,14.20
2019-03-02T12:21:57.736Z,13.73
2019-03-02T12:24:58.329Z,15.70
2019-03-02T12:27:48.655Z,14.73
2019-03-02T12:30:36.700Z,15.50
2019-03-02T12:33:17.025Z,15.57
2019-03-02T12:36:04.620Z,15.07
2019-03-02T12:38:52.628Z,13.27
2019-03-02T12:41:35.958Z,14.43
2019-03-02T12:44:25.952Z,15.57
2019-03-02T12:47:13.516Z,15.27
2019-03-02T12:50:01.535Z,13.70
2019-03-02T12:52:53.498Z,14.87
2019-03-02T12:55:39.569Z,14.33
2019-03-02T12:58:14.815Z,15.17
2019-03-02T13:00:55.185Z,15.90
2019-03-02T13:03:48.426Z,14.87
2019-03-02T13:06:37.479Z,14.53
2019-03-02T13:09:26.517Z,16.23
2019-03-02T13:12:14.274Z,14.10
2019-03-02T13:14:57.247Z,16.07
2019-03-02T13:17:49.723Z,15.83
2019-03-02T13:20:28.207Z,15.40
2019-03-02T13:23:06.539Z,17.53
2019-03-02T13:26:00.585Z,17.13
2019-03-02T13:28:37.037Z,15.67
2019-03-02T13:31:20.463Z,14.23
2019-03-02T13:34:08.187Z,16.20
2019-03-02T13:36:56.678Z,16.50
2019-03-02T13:39:47.149Z,16.70
2019-03-02T13:42:26.478Z,16.23
2019-03-02T13:45:15.024Z,14.67
2019-03-02T13:48:12.659Z,15.00
2019-03-02T13:51:02.954Z,16.90
2019-03-02T13:53:44.614Z,16.27
2019-03-02T13:56:39.752Z,17.27
2019-03-02T13:59:27.206Z,17.00
2019-03-02T14:02:11.881Z,16.80
2019-03-02T14:04:54.396Z,14.63
2019-03-02T14:07:43.574Z,15.90
2019-03-02T14:10:44.947Z,15.73
2019-03-02T14:13:37.421Z,15.03
2019-03-02T14:16:18.587Z,14.60
2019-03-02T14:19:08.736Z,17.70
2019-03-02T14:21:54.866Z,14.27
2019-03-02T14:24:53.870Z,14.40
2019-03-02T14:27:35.377Z,14.53
2019-03-02T14:30:43.307Z,16.20
2019-03-02T14:33:31.844Z,15.23
2019-03-02T14:36:36.416Z,15.00
2019-03-02T14:39:21.348Z,14.03
2019-03-02T14:42:08.948Z,14.20
2019-03-02T14:44:45.326Z,12.87
2019-03-02T14:47:36.532Z,14.23
2019-03-02T14:50:25.014Z,13.40
2019-03-02T14:53:06.271Z,14.13
2019-03-02T14:55:54.156Z,14.73
2019-03-02T14:58:42.018Z,14.50
2019-03-02T15:01:41.337Z,13.37
2019-03-02T15:04:29.430Z,13.73
2019-03-02T15:07:23.224Z,13.87
2019-03-02T15:10:14.217Z,13.40
2019-03-02T15:13:06.510Z,13.03
2019-03-02T15:16:11.647Z,15.03
2019-03-02T15:18:57.001Z,13.90
2019-03-02T15:21:47.695Z,12.87
2019-03-02T15:24:28.980Z,15.40
2019-03-02T15:27:20.224Z,13.77
2019-03-02T15:30:09.587Z,13.73
2019-03-02T15:32:57.718Z,12.83
2019-03-02T15:35:47.582Z,15.67
2019-03-02T15:38:40.213Z,12.83
2019-03-02T15:41:24.549Z,15.03
2019-03-02T15:44:17.697Z,13.27
2019-03-02T15:46:55.152Z,12.73
2019-03-02T15:49:50.587Z,13.60
2019-03-02T15:52:40.064Z,12.80
2019-03-02T15:55:34.781Z,13.47
2019-03-02T15:58:42.396Z,12.53
2019-03-02T16:01:37.911Z,11.63
2019-03-02T16:04:18.939Z,12.60
2019-03-02T16:07:02.084Z,10.83
2019-03-02T16:09:51.054Z,11.60
2019-03-02T16:12:55.777Z,12.00
2019-03-02T16:15:57.489Z,11.60
2019-03-02T16:18:34.999Z,12.73
2019-03-02T16:21:28.642Z,11.97
2019-03-02T16:24:15.534Z,12.57
2019-03-02T16:26:56.593Z,12.07
2019-03-02T16:29:35.233Z,12.57
2019-03-02T16:32:30.551Z,14.03
2019-03-02T16:35:21.042Z,12.20
2019-03-02T16:38:08.624Z,11.57
2019-03-02T16:40:46.397Z,11.03
2019-03-02T16:43:33.392Z,11.27
2019-03-02T16:46:26.186Z,11.63
2019-03-02T16:49:06.131Z,11.50
2019-03-02T16:51:56.516Z,12.13
2019-03-02T16:54:44.687Z,12.00
2019-03-02T16:57:30.213Z,10.63
2019-03-02T17:00:14.817Z,10.60
2019-03-02T17:03:16.617Z,11.13
2019-03-02T17:05:59.012Z,10.93
2019-03-02T17:08:35.673Z,10.13
2019-03-02T17:11:31.969Z,10.03
2019-03-02T17:14:09.219Z,9.93
2019-03-02T17:17:02.650Z,9.97
2019-03-02T17:19:51.888Z,9.77
2019-03-02T17:22:33.928Z,9.70
2019-03-02T17:25:21.761Z,9.10
2019-03-02T17:28:01.589Z,10.43
2019-03-02T17:30:38.986Z,9.47
2019-03-02T17:33:40.553Z,9.00
2019-03-02T17:36:17.270Z,8.60
2019-03-02T17:39:02.013Z,8.60
2019-03-02T17:42:01.854Z,8.33
2019-03-02T17:44:40.423Z,7.90
2019-03-02T17:47:23.004Z,8.53
2019-03-02T17:50:05.870Z,7.97
2019-03-02T17:52:50.452Z,9.00
2019-03-02T17:55:39.442Z,8.43
2019-03-02T17:58:35.035Z,7.73
2019-03-02T18:01:15.525Z,7.77
2019-03-02T18:04:10.801Z,7.77
2019-03-02T18:06:59.326Z,7.67
2019-03-02T18:09:48.280Z,6.97
2019-03-02T18:12:29.266Z,7.83
2019-03-02T18:15:14.576Z,8.47
2019-03-02T18:18:01.988Z,6.93
2019-03-02T18:20:32.912Z,7.03
2019-03-02T18:23:03.819Z,7.93
2019-03-02T18:25:33.876Z,8.10
2019-03-02T18:28:04.234Z,7.77
2019-03-02T18:30:34.389Z,7.40
2019-03-02T18:33:21.038Z,7.57
2019-03-02T18:35:51.050Z,7.67
2019-03-02T18:38:21.183Z,6.83
2019-03-02T18:40:52.277Z,7.90
2019-03-02T18:43:23.341Z,7.50
2019-03-02T18:45:53.597Z,7.57
2019-03-02T18:48:41.527Z,7.53
2019-03-02T18:51:27.422Z,6.80
2019-03-02T18:54:11.843Z,6.67
2019-03-02T18:56:42.006Z,6.93
2019-03-02T18:59:13.159Z,6.67
2019-03-02T19:01:44.326Z,7.20
2019-03-02T19:04:14.802Z,7.17
2019-03-02T19:06:44.880Z,6.80
2019-03-02T19:09:15.693Z,7.27
2019-03-02T19:11:45.671Z,6.53
2019-03-02T19:14:16.924Z,6.97
2019-03-02T19:16:47.468Z,7.60
2019-03-02T19:19:17.516Z,7.53
2019-03-02T19:21:47.715Z,5.77
2019-03-02T19:24:17.749Z,6.53
2019-03-02T19:26:47.727Z,7.00
2019-03-02T19:29:18.107Z,7.80
2019-03-02T19:31:48.182Z,6.50
2019-03-02T19:34:18.292Z,6.63
2019-03-02T19:36:48.233Z,5.80
2019-03-02T19:39:20.242Z,6.80
2019-03-02T19:41:50.342Z,6.80
2019-03-02T19:44:20.492Z,7.03
2019-03-02T19:46:50.777Z,6.07
2019-03-02T19:49:34.294Z,6.67
2019-03-02T19:52:04.667Z,6.77
2019-03-02T19:54:36.018Z,5.77
2019-03-02T19:57:06.030Z,5.50
2019-03-02T19:59:36.088Z,5.90
2019-03-02T20:02:06.569Z,7.10
2019-03-02T20:04:36.737Z,6.87
2019-03-02T20:07:06.763Z,6.93
2019-03-02T20:09:36.827Z,5.80
2019-03-02T20:12:06.797Z,5.93
2019-03-02T20:14:36.758Z,5.97
2019-03-02T20:17:06.816Z,6.47
2019-03-02T20:19:36.921Z,6.87
2019-03-02T20:22:06.960Z,6.30
2019-03-02T20:24:37.079Z,6.70
2019-03-02T20:27:07.052Z,7.77
2019-03-02T20:29:37.861Z,7.63
2019-03-02T20:32:08.041Z,7.23
2019-03-02T20:34:38.096Z,6.80
2019-03-02T20:37:08.242Z,7.67
2019-03-02T20:39:38.290Z,6.77
2019-03-02T20:42:08.356Z,8.30
2019-03-02T20:44:38.934Z,7.57
2019-03-02T20:47:09.022Z,7.87
2019-03-02T20:49:39.119Z,8.10
2019-03-02T20:52:09.361Z,6.20
2019-03-02T20:54:39.423Z,8.57
2019-03-02T20:57:09.489Z,7.27
2019-03-02T20:59:39.578Z,8.63
2019-03-02T21:02:09.630Z,7.70
2019-03-02T21:04:39.741Z,10.73
2019-03-02T21:07:09.837Z,8.93
2019-03-02T21:09:40.760Z,9.63
2019-03-02T21:12:11.106Z,9.70
2019-03-02T21:14:41.199Z,8.50
2019-03-02T21:17:11.348Z,10.33
2019-03-02T21:19:41.474Z,9.37
2019-03-02T21:22:11.609Z,10.13
2019-03-02T21:24:41.796Z,8.93
2019-03-02T21:27:11.932Z,9.93
2019-03-02T21:29:42.003Z,9.07
2019-03-02T21:32:11.993Z,9.93
2019-03-02T21:34:42.160Z,9.27
2019-03-02T21:37:12.142Z,9.25
2019-03-02T21:39:42.161Z,9.83
2019-03-02T21:42:12.543Z,9.53
2019-03-02T21:44:42.526Z,9.43
2019-03-02T21:47:12.871Z,8.67
2019-03-02T21:49:43.213Z,10.70
2019-03-02T21:52:13.508Z,8.87
2019-03-02T21:54:43.658Z,9.27
2019-03-02T21:57:13.654Z,9.50
2019-03-02T21:59:43.779Z,8.47
2019-03-02T22:02:15.502Z,7.57
2019-03-02T22:04:45.542Z,7.47
2019-03-02T22:07:15.598Z,6.93
2019-03-02T22:09:45.589Z,7.13
2019-03-02T22:12:15.674Z,7.20
2019-03-02T22:14:45.728Z,6.23
2019-03-02T22:17:15.860Z,6.30
2019-03-02T22:19:45.850Z,5.97
2019-03-02T22:22:18.985Z,5.67
2019-03-02T22:24:48.976Z,5.77
2019-03-02T22:27:19.341Z,5.80
2019-03-02T22:29:49.398Z,5.93
2019-03-02T22:32:19.409Z,5.73
2019-03-02T22:34:49.546Z,6.03
2019-03-02T22:37:19.619Z,5.93
2019-03-02T22:39:49.671Z,5.67
2019-03-02T22:42:19.666Z,5.97
2019-03-02T22:44:49.697Z,6.47
2019-03-02T22:47:19.667Z,6.47
2019-03-02T22:49:49.734Z,5.13
2019-03-02T22:52:19.745Z,5.23
2019-03-02T22:54:50.578Z,6.23
2019-03-02T22:57:20.622Z,5.47
2019-03-02T23:00:09.887Z,4.97
2019-03-02T23:02:42.126Z,5.03
2019-03-02T23:05:12.287Z,4.90
2019-03-02T23:07:42.711Z,4.73
2019-03-02T23:10:13.024Z,4.37
2019-03-02T23:12:43.134Z,4.83
2019-03-02T23:15:13.256Z,5.07
2019-03-02T23:17:43.375Z,4.77
2019-03-02T23:20:13.414Z,4.10
2019-03-02T23:22:43.491Z,4.33
2019-03-02T23:25:14.624Z,4.43
2019-03-02T23:27:44.664Z,4.17
2019-03-02T23:30:14.897Z,3.77
2019-03-02T23:32:45.031Z,5.60
2019-03-02T23:35:15.104Z,4.00
2019-03-02T23:37:45.224Z,3.80
2019-03-02T23:40:15.330Z,4.07
2019-03-02T23:42:45.471Z,3.53
2019-03-02T23:45:15.634Z,3.90
2019-03-02T23:47:45.786Z,3.73
2019-03-02T23:50:15.919Z,3.50
2019-03-02T23:52:46.063Z,3.33
2019-03-02T23:55:16.135Z,3.00
2019-03-02T23:57:46.100Z,2.83
